sensor_id;sensor_type;location;lat;lon;timestamp;P1;durP1;ratioP1;P2;durP2;ratioP2
57327;SDS011;43162;51.040;18.244;2022-11-15T00:01:32;65.70;;;26.30;;
57327;SDS011;43162;51.040;18.244;2022-11-15T00:03:57;56.30;;;25.80;;
57327;SDS011;43162;51.040;18.244;2022-11-15T00:06:23;71.00;;;28.80;;
57327;SDS011;43162;51.040;18.244;2022-11-15T00:08:48;55.30;;;27.10;;
57327;SDS011;43162;51.040;18.244;2022-11-15T00:11:14;54.00;;;26.20;;
57327;SDS011;43162;51.040;18.244;2022-11-15T00:13:39;54.60;;;24.40;;
57327;SDS011;43162;51.040;18.244;2022-11-15T00:16:05;69.60;;;28.30;;
57327;SDS011;43162;51.040;18.244;2022-11-15T00:18:30;63.40;;;28.70;;
57327;SDS011;43162;51.040;18.244;2022-11-15T00:20:56;57.70;;;26.70;;
57327;SDS011;43162;51.040;18.244;2022-11-15T00:23:27;67.20;;;26.40;;
57327;SDS011;43162;51.040;18.244;2022-11-15T00:25:56;62.20;;;24.90;;
57327;SDS011;43162;51.040;18.244;2022-11-15T00:28:23;61.80;;;27.20;;
57327;SDS011;43162;51.040;18.244;2022-11-15T00:30:48;61.10;;;25.00;;
57327;SDS011;43162;51.040;18.244;2022-11-15T00:33:14;59.70;;;25.70;;
57327;SDS011;43162;51.040;18.244;2022-11-15T00:35:39;59.10;;;26.10;;
57327;SDS011;43162;51.040;18.244;2022-11-15T00:38:04;56.00;;;23.60;;
57327;SDS011;43162;51.040;18.244;2022-11-15T00:40:30;59.40;;;26.70;;
57327;SDS011;43162;51.040;18.244;2022-11-15T00:42:55;57.10;;;26.10;;
57327;SDS011;43162;51.040;18.244;2022-11-15T00:45:21;53.80;;;24.40;;
57327;SDS011;43162;51.040;18.244;2022-11-15T00:47:46;54.70;;;26.80;;
57327;SDS011;43162;51.040;18.244;2022-11-15T00:50:12;50.60;;;25.40;;
57327;SDS011;43162;51.040;18.244;2022-11-15T00:52:37;51.00;;;24.10;;
57327;SDS011;43162;51.040;18.244;2022-11-15T00:55:03;56.20;;;23.20;;
57327;SDS011;43162;51.040;18.244;2022-11-15T00:57:28;51.40;;;23.50;;
57327;SDS011;43162;51.040;18.244;2022-11-15T00:59:54;51.60;;;24.00;;
57327;SDS011;43162;51.040;18.244;2022-11-15T01:02:19;59.90;;;25.50;;
57327;SDS011;43162;51.040;18.244;2022-11-15T01:04:45;54.70;;;25.10;;
57327;SDS011;43162;51.040;18.244;2022-11-15T01:07:10;49.10;;;24.10;;
57327;SDS011;43162;51.040;18.244;2022-11-15T01:09:35;55.30;;;24.60;;
57327;SDS011;43162;51.040;18.244;2022-11-15T01:12:01;52.10;;;23.10;;
57327;SDS011;43162;51.040;18.244;2022-11-15T01:14:26;50.60;;;23.10;;
57327;SDS011;43162;51.040;18.244;2022-11-15T01:16:52;49.20;;;22.80;;
57327;SDS011;43162;51.040;18.244;2022-11-15T01:19:17;46.10;;;21.50;;
57327;SDS011;43162;51.040;18.244;2022-11-15T01:21:43;52.90;;;24.20;;
57327;SDS011;43162;51.040;18.244;2022-11-15T01:24:10;48.80;;;23.40;;
57327;SDS011;43162;51.040;18.244;2022-11-15T01:26:37;46.00;;;21.80;;
57327;SDS011;43162;51.040;18.244;2022-11-15T01:29:03;51.30;;;22.40;;
57327;SDS011;43162;51.040;18.244;2022-11-15T01:31:28;54.90;;;24.50;;
57327;SDS011;43162;51.040;18.244;2022-11-15T01:33:53;54.00;;;26.00;;
57327;SDS011;43162;51.040;18.244;2022-11-15T01:36:20;51.20;;;25.20;;
57327;SDS011;43162;51.040;18.244;2022-11-15T01:38:56;54.20;;;25.30;;
57327;SDS011;43162;51.040;18.244;2022-11-15T01:41:23;53.10;;;26.60;;
57327;SDS011;43162;51.040;18.244;2022-11-15T01:43:51;55.20;;;25.30;;
57327;SDS011;43162;51.040;18.244;2022-11-15T01:48:48;45.30;;;22.10;;
57327;SDS011;43162;51.040;18.244;2022-11-15T01:51:15;49.40;;;22.60;;
57327;SDS011;43162;51.040;18.244;2022-11-15T01:53:42;48.00;;;23.50;;
57327;SDS011;43162;51.040;18.244;2022-11-15T01:56:10;48.10;;;21.80;;
57327;SDS011;43162;51.040;18.244;2022-11-15T01:58:37;51.70;;;22.30;;
57327;SDS011;43162;51.040;18.244;2022-11-15T02:01:02;47.70;;;22.00;;
57327;SDS011;43162;51.040;18.244;2022-11-15T02:03:31;51.30;;;25.20;;
57327;SDS011;43162;51.040;18.244;2022-11-15T02:05:59;49.60;;;23.20;;
57327;SDS011;43162;51.040;18.244;2022-11-15T02:08:24;52.70;;;24.60;;
57327;SDS011;43162;51.040;18.244;2022-11-15T02:10:50;54.60;;;23.40;;
57327;SDS011;43162;51.040;18.244;2022-11-15T02:13:16;47.90;;;23.10;;
57327;SDS011;43162;51.040;18.244;2022-11-15T02:15:55;47.80;;;25.40;;
57327;SDS011;43162;51.040;18.244;2022-11-15T02:18:34;45.00;;;21.50;;
57327;SDS011;43162;51.040;18.244;2022-11-15T02:28:29;44.40;;;22.10;;
57327;SDS011;43162;51.040;18.244;2022-11-15T02:36:16;49.00;;;23.00;;
57327;SDS011;43162;51.040;18.244;2022-11-15T02:41:10;45.10;;;24.00;;
57327;SDS011;43162;51.040;18.244;2022-11-15T02:43:59;48.80;;;23.90;;
57327;SDS011;43162;51.040;18.244;2022-11-15T02:48:48;48.60;;;24.70;;
57327;SDS011;43162;51.040;18.244;2022-11-15T02:51:14;53.70;;;27.90;;
57327;SDS011;43162;51.040;18.244;2022-11-15T02:53:40;48.40;;;24.80;;
57327;SDS011;43162;51.040;18.244;2022-11-15T02:56:07;47.70;;;24.20;;
57327;SDS011;43162;51.040;18.244;2022-11-15T03:01:15;43.80;;;21.50;;
57327;SDS011;43162;51.040;18.244;2022-11-15T03:03:46;40.60;;;21.10;;
57327;SDS011;43162;51.040;18.244;2022-11-15T03:06:29;45.00;;;21.50;;
57327;SDS011;43162;51.040;18.244;2022-11-15T03:09:03;49.10;;;24.30;;
57327;SDS011;43162;51.040;18.244;2022-11-15T03:11:31;51.30;;;23.70;;
57327;SDS011;43162;51.040;18.244;2022-11-15T03:18:53;48.20;;;24.10;;
57327;SDS011;43162;51.040;18.244;2022-11-15T03:21:20;43.30;;;23.70;;
57327;SDS011;43162;51.040;18.244;2022-11-15T03:23:47;51.50;;;24.40;;
57327;SDS011;43162;51.040;18.244;2022-11-15T03:26:13;55.00;;;23.20;;
57327;SDS011;43162;51.040;18.244;2022-11-15T03:28:53;48.90;;;24.10;;
57327;SDS011;43162;51.040;18.244;2022-11-15T03:31:20;52.60;;;24.30;;
57327;SDS011;43162;51.040;18.244;2022-11-15T03:34:04;43.20;;;22.40;;
57327;SDS011;43162;51.040;18.244;2022-11-15T03:36:32;48.60;;;24.40;;
57327;SDS011;43162;51.040;18.244;2022-11-15T03:39:00;56.70;;;26.60;;
57327;SDS011;43162;51.040;18.244;2022-11-15T03:41:37;55.40;;;25.30;;
57327;SDS011;43162;51.040;18.244;2022-11-15T03:44:08;56.80;;;24.50;;
57327;SDS011;43162;51.040;18.244;2022-11-15T03:46:38;49.90;;;24.50;;
57327;SDS011;43162;51.040;18.244;2022-11-15T03:49:10;50.70;;;23.60;;
57327;SDS011;43162;51.040;18.244;2022-11-15T03:51:37;50.20;;;23.40;;
57327;SDS011;43162;51.040;18.244;2022-11-15T03:54:06;51.40;;;25.30;;
57327;SDS011;43162;51.040;18.244;2022-11-15T03:56:31;52.80;;;24.00;;
57327;SDS011;43162;51.040;18.244;2022-11-15T03:58:57;53.40;;;24.10;;
57327;SDS011;43162;51.040;18.244;2022-11-15T04:01:22;58.40;;;25.90;;
57327;SDS011;43162;51.040;18.244;2022-11-15T04:03:48;48.50;;;23.60;;
57327;SDS011;43162;51.040;18.244;2022-11-15T04:06:13;51.40;;;24.00;;
57327;SDS011;43162;51.040;18.244;2022-11-15T04:08:39;45.90;;;21.80;;
57327;SDS011;43162;51.040;18.244;2022-11-15T04:11:04;53.50;;;25.70;;
57327;SDS011;43162;51.040;18.244;2022-11-15T04:13:30;45.20;;;21.90;;
57327;SDS011;43162;51.040;18.244;2022-11-15T04:15:55;54.70;;;25.70;;
57327;SDS011;43162;51.040;18.244;2022-11-15T04:18:21;52.60;;;23.80;;
57327;SDS011;43162;51.040;18.244;2022-11-15T04:20:47;52.40;;;23.40;;
57327;SDS011;43162;51.040;18.244;2022-11-15T04:23:32;54.70;;;24.20;;
57327;SDS011;43162;51.040;18.244;2022-11-15T04:26:17;49.00;;;22.50;;
57327;SDS011;43162;51.040;18.244;2022-11-15T04:28:43;49.00;;;23.50;;
57327;SDS011;43162;51.040;18.244;2022-11-15T04:31:28;51.70;;;25.60;;
57327;SDS011;43162;51.040;18.244;2022-11-15T04:33:53;50.50;;;23.90;;
57327;SDS011;43162;51.040;18.244;2022-11-15T04:36:19;50.70;;;25.20;;
57327;SDS011;43162;51.040;18.244;2022-11-15T04:39:04;45.10;;;24.40;;
57327;SDS011;43162;51.040;18.244;2022-11-15T04:41:29;52.30;;;25.70;;
57327;SDS011;43162;51.040;18.244;2022-11-15T04:43:55;46.30;;;22.70;;
57327;SDS011;43162;51.040;18.244;2022-11-15T04:46:21;49.00;;;23.80;;
57327;SDS011;43162;51.040;18.244;2022-11-15T04:48:46;55.60;;;25.20;;
57327;SDS011;43162;51.040;18.244;2022-11-15T04:51:12;52.70;;;24.20;;
57327;SDS011;43162;51.040;18.244;2022-11-15T04:53:37;56.30;;;25.80;;
57327;SDS011;43162;51.040;18.244;2022-11-15T04:56:02;58.80;;;25.70;;
57327;SDS011;43162;51.040;18.244;2022-11-15T04:58:28;51.00;;;24.10;;
57327;SDS011;43162;51.040;18.244;2022-11-15T05:00:53;51.50;;;24.00;;
57327;SDS011;43162;51.040;18.244;2022-11-15T05:03:19;57.00;;;26.60;;
57327;SDS011;43162;51.040;18.244;2022-11-15T05:06:03;45.60;;;22.90;;
57327;SDS011;43162;51.040;18.244;2022-11-15T05:08:29;54.40;;;25.20;;
57327;SDS011;43162;51.040;18.244;2022-11-15T05:10:54;47.30;;;23.50;;
57327;SDS011;43162;51.040;18.244;2022-11-15T05:13:20;54.10;;;25.40;;
57327;SDS011;43162;51.040;18.244;2022-11-15T05:15:45;50.30;;;24.90;;
57327;SDS011;43162;51.040;18.244;2022-11-15T05:18:11;39.90;;;21.10;;
57327;SDS011;43162;51.040;18.244;2022-11-15T05:20:36;68.60;;;33.10;;
57327;SDS011;43162;51.040;18.244;2022-11-15T05:23:02;49.10;;;23.30;;
57327;SDS011;43162;51.040;18.244;2022-11-15T05:25:27;63.70;;;31.20;;
57327;SDS011;43162;51.040;18.244;2022-11-15T05:27:53;66.10;;;32.20;;
57327;SDS011;43162;51.040;18.244;2022-11-15T05:30:19;59.80;;;28.50;;
57327;SDS011;43162;51.040;18.244;2022-11-15T05:32:44;58.50;;;27.40;;
57327;SDS011;43162;51.040;18.244;2022-11-15T05:35:12;54.90;;;26.70;;
57327;SDS011;43162;51.040;18.244;2022-11-15T05:37:39;48.40;;;25.30;;
57327;SDS011;43162;51.040;18.244;2022-11-15T05:40:05;59.30;;;26.80;;
57327;SDS011;43162;51.040;18.244;2022-11-15T05:42:30;54.70;;;26.80;;
57327;SDS011;43162;51.040;18.244;2022-11-15T05:44:56;68.80;;;26.40;;
57327;SDS011;43162;51.040;18.244;2022-11-15T05:47:23;64.20;;;29.10;;
57327;SDS011;43162;51.040;18.244;2022-11-15T05:49:51;58.00;;;27.60;;
57327;SDS011;43162;51.040;18.244;2022-11-15T05:52:19;52.60;;;25.10;;
57327;SDS011;43162;51.040;18.244;2022-11-15T05:54:45;57.90;;;29.00;;
57327;SDS011;43162;51.040;18.244;2022-11-15T05:57:11;57.00;;;27.10;;
57327;SDS011;43162;51.040;18.244;2022-11-15T05:59:36;56.50;;;26.20;;
57327;SDS011;43162;51.040;18.244;2022-11-15T06:02:02;52.90;;;27.00;;
57327;SDS011;43162;51.040;18.244;2022-11-15T06:04:28;55.90;;;26.80;;
57327;SDS011;43162;51.040;18.244;2022-11-15T06:06:53;52.20;;;26.20;;
57327;SDS011;43162;51.040;18.244;2022-11-15T06:09:19;61.40;;;29.00;;
57327;SDS011;43162;51.040;18.244;2022-11-15T06:11:44;57.30;;;29.60;;
57327;SDS011;43162;51.040;18.244;2022-11-15T06:14:10;58.60;;;27.90;;
57327;SDS011;43162;51.040;18.244;2022-11-15T06:16:35;48.40;;;25.60;;
57327;SDS011;43162;51.040;18.244;2022-11-15T06:19:01;56.90;;;29.60;;
57327;SDS011;43162;51.040;18.244;2022-11-15T06:21:26;56.50;;;28.90;;
57327;SDS011;43162;51.040;18.244;2022-11-15T06:23:53;48.60;;;24.60;;
57327;SDS011;43162;51.040;18.244;2022-11-15T06:26:18;51.90;;;26.40;;
57327;SDS011;43162;51.040;18.244;2022-11-15T06:28:45;51.40;;;23.70;;
57327;SDS011;43162;51.040;18.244;2022-11-15T06:31:11;47.70;;;24.70;;
57327;SDS011;43162;51.040;18.244;2022-11-15T06:33:38;51.30;;;25.60;;
57327;SDS011;43162;51.040;18.244;2022-11-15T06:36:04;51.40;;;25.30;;
57327;SDS011;43162;51.040;18.244;2022-11-15T06:38:31;47.70;;;24.00;;
57327;SDS011;43162;51.040;18.244;2022-11-15T06:41:03;52.50;;;25.80;;
57327;SDS011;43162;51.040;18.244;2022-11-15T06:43:31;54.60;;;27.10;;
57327;SDS011;43162;51.040;18.244;2022-11-15T06:45:59;52.70;;;27.40;;
57327;SDS011;43162;51.040;18.244;2022-11-15T06:48:24;55.90;;;30.50;;
57327;SDS011;43162;51.040;18.244;2022-11-15T06:50:51;53.80;;;30.20;;
57327;SDS011;43162;51.040;18.244;2022-11-15T06:53:17;55.90;;;32.20;;
57327;SDS011;43162;51.040;18.244;2022-11-15T06:55:42;56.80;;;32.20;;
57327;SDS011;43162;51.040;18.244;2022-11-15T06:58:08;67.00;;;36.60;;
57327;SDS011;43162;51.040;18.244;2022-11-15T07:00:33;72.50;;;37.90;;
57327;SDS011;43162;51.040;18.244;2022-11-15T07:03:02;81.80;;;40.20;;
57327;SDS011;43162;51.040;18.244;2022-11-15T07:05:27;86.20;;;39.10;;
57327;SDS011;43162;51.040;18.244;2022-11-15T07:07:54;82.30;;;38.20;;
57327;SDS011;43162;51.040;18.244;2022-11-15T07:10:20;74.40;;;34.00;;
57327;SDS011;43162;51.040;18.244;2022-11-15T07:12:49;75.20;;;34.10;;
57327;SDS011;43162;51.040;18.244;2022-11-15T07:15:15;73.60;;;33.80;;
57327;SDS011;43162;51.040;18.244;2022-11-15T07:17:40;71.90;;;34.80;;
57327;SDS011;43162;51.040;18.244;2022-11-15T07:20:06;81.50;;;40.90;;
57327;SDS011;43162;51.040;18.244;2022-11-15T07:22:32;75.40;;;36.60;;
57327;SDS011;43162;51.040;18.244;2022-11-15T07:24:57;62.10;;;32.40;;
57327;SDS011;43162;51.040;18.244;2022-11-15T07:27:23;58.90;;;29.70;;
57327;SDS011;43162;51.040;18.244;2022-11-15T07:29:48;60.70;;;30.70;;
57327;SDS011;43162;51.040;18.244;2022-11-15T07:32:13;57.90;;;30.10;;
57327;SDS011;43162;51.040;18.244;2022-11-15T07:34:39;62.60;;;32.50;;
57327;SDS011;43162;51.040;18.244;2022-11-15T07:37:04;72.50;;;42.10;;
57327;SDS011;43162;51.040;18.244;2022-11-15T07:39:29;57.90;;;33.20;;
57327;SDS011;43162;51.040;18.244;2022-11-15T07:41:55;50.50;;;27.60;;
57327;SDS011;43162;51.040;18.244;2022-11-15T07:44:40;43.40;;;23.40;;
57327;SDS011;43162;51.040;18.244;2022-11-15T07:47:05;42.00;;;23.90;;
57327;SDS011;43162;51.040;18.244;2022-11-15T07:49:31;43.70;;;24.60;;
57327;SDS011;43162;51.040;18.244;2022-11-15T07:51:56;44.60;;;23.20;;
57327;SDS011;43162;51.040;18.244;2022-11-15T07:54:22;42.00;;;23.90;;
57327;SDS011;43162;51.040;18.244;2022-11-15T07:56:47;48.90;;;25.30;;
57327;SDS011;43162;51.040;18.244;2022-11-15T07:59:13;36.60;;;21.30;;
57327;SDS011;43162;51.040;18.244;2022-11-15T08:01:38;39.00;;;21.40;;
57327;SDS011;43162;51.040;18.244;2022-11-15T08:04:03;44.60;;;24.50;;
57327;SDS011;43162;51.040;18.244;2022-11-15T08:06:29;41.80;;;21.60;;
57327;SDS011;43162;51.040;18.244;2022-11-15T08:08:55;43.80;;;22.60;;
57327;SDS011;43162;51.040;18.244;2022-11-15T08:11:20;41.90;;;23.90;;
57327;SDS011;43162;51.040;18.244;2022-11-15T08:13:46;39.80;;;23.50;;
57327;SDS011;43162;51.040;18.244;2022-11-15T08:16:11;44.10;;;23.60;;
57327;SDS011;43162;51.040;18.244;2022-11-15T08:18:37;35.80;;;20.50;;
57327;SDS011;43162;51.040;18.244;2022-11-15T08:21:03;39.40;;;23.20;;
57327;SDS011;43162;51.040;18.244;2022-11-15T08:23:29;42.60;;;24.30;;
57327;SDS011;43162;51.040;18.244;2022-11-15T08:26:04;40.10;;;23.50;;
57327;SDS011;43162;51.040;18.244;2022-11-15T08:28:30;44.50;;;23.80;;
57327;SDS011;43162;51.040;18.244;2022-11-15T08:30:56;47.90;;;28.40;;
57327;SDS011;43162;51.040;18.244;2022-11-15T08:33:22;51.20;;;30.00;;
57327;SDS011;43162;51.040;18.244;2022-11-15T08:35:47;50.30;;;25.60;;
57327;SDS011;43162;51.040;18.244;2022-11-15T08:38:13;60.60;;;26.20;;
57327;SDS011;43162;51.040;18.244;2022-11-15T08:40:39;43.90;;;24.70;;
57327;SDS011;43162;51.040;18.244;2022-11-15T08:43:04;50.30;;;26.20;;
57327;SDS011;43162;51.040;18.244;2022-11-15T08:45:30;40.30;;;22.30;;
57327;SDS011;43162;51.040;18.244;2022-11-15T08:47:56;44.30;;;24.40;;
57327;SDS011;43162;51.040;18.244;2022-11-15T08:50:21;43.00;;;21.90;;
57327;SDS011;43162;51.040;18.244;2022-11-15T08:52:47;40.30;;;22.30;;
57327;SDS011;43162;51.040;18.244;2022-11-15T08:55:15;35.40;;;21.60;;
57327;SDS011;43162;51.040;18.244;2022-11-15T08:57:40;36.20;;;21.50;;
57327;SDS011;43162;51.040;18.244;2022-11-15T09:00:06;34.60;;;19.20;;
57327;SDS011;43162;51.040;18.244;2022-11-15T09:02:32;46.10;;;25.90;;
57327;SDS011;43162;51.040;18.244;2022-11-15T09:04:57;56.70;;;30.80;;
57327;SDS011;43162;51.040;18.244;2022-11-15T09:07:22;52.00;;;27.70;;
57327;SDS011;43162;51.040;18.244;2022-11-15T09:09:48;50.40;;;24.50;;
57327;SDS011;43162;51.040;18.244;2022-11-15T09:12:13;44.40;;;22.70;;
57327;SDS011;43162;51.040;18.244;2022-11-15T09:14:39;42.70;;;22.90;;
57327;SDS011;43162;51.040;18.244;2022-11-15T09:17:07;42.40;;;22.20;;
57327;SDS011;43162;51.040;18.244;2022-11-15T09:19:32;46.70;;;26.50;;
57327;SDS011;43162;51.040;18.244;2022-11-15T09:21:58;47.30;;;23.80;;
57327;SDS011;43162;51.040;18.244;2022-11-15T09:24:23;45.30;;;23.60;;
57327;SDS011;43162;51.040;18.244;2022-11-15T09:26:49;42.70;;;23.30;;
57327;SDS011;43162;51.040;18.244;2022-11-15T09:29:15;45.20;;;22.70;;
57327;SDS011;43162;51.040;18.244;2022-11-15T09:31:41;33.80;;;21.20;;
57327;SDS011;43162;51.040;18.244;2022-11-15T09:34:06;38.10;;;22.30;;
57327;SDS011;43162;51.040;18.244;2022-11-15T09:36:32;35.20;;;19.50;;
57327;SDS011;43162;51.040;18.244;2022-11-15T09:38:58;35.10;;;20.60;;
57327;SDS011;43162;51.040;18.244;2022-11-15T09:41:33;42.50;;;25.00;;
57327;SDS011;43162;51.040;18.244;2022-11-15T09:44:17;38.70;;;24.90;;
57327;SDS011;43162;51.040;18.244;2022-11-15T09:47:03;35.70;;;20.60;;
57327;SDS011;43162;51.040;18.244;2022-11-15T09:49:30;32.70;;;20.60;;
57327;SDS011;43162;51.040;18.244;2022-11-15T09:51:56;35.40;;;20.00;;
57327;SDS011;43162;51.040;18.244;2022-11-15T09:57:13;31.90;;;19.50;;
57327;SDS011;43162;51.040;18.244;2022-11-15T10:04:33;39.00;;;22.80;;
57327;SDS011;43162;51.040;18.244;2022-11-15T10:07:02;33.50;;;19.20;;
57327;SDS011;43162;51.040;18.244;2022-11-15T10:09:33;33.30;;;20.20;;
57327;SDS011;43162;51.040;18.244;2022-11-15T10:12:00;31.70;;;20.10;;
57327;SDS011;43162;51.040;18.244;2022-11-15T10:14:26;39.60;;;21.90;;
57327;SDS011;43162;51.040;18.244;2022-11-15T10:22:18;39.80;;;22.60;;
57327;SDS011;43162;51.040;18.244;2022-11-15T10:24:46;35.50;;;19.10;;
57327;SDS011;43162;51.040;18.244;2022-11-15T10:27:14;31.00;;;20.30;;
57327;SDS011;43162;51.040;18.244;2022-11-15T10:29:44;32.90;;;20.60;;
57327;SDS011;43162;51.040;18.244;2022-11-15T10:32:10;26.80;;;17.60;;
57327;SDS011;43162;51.040;18.244;2022-11-15T10:34:36;33.40;;;19.50;;
57327;SDS011;43162;51.040;18.244;2022-11-15T10:37:02;30.90;;;19.40;;
57327;SDS011;43162;51.040;18.244;2022-11-15T10:39:27;31.00;;;19.90;;
57327;SDS011;43162;51.040;18.244;2022-11-15T10:41:53;29.70;;;18.10;;
57327;SDS011;43162;51.040;18.244;2022-11-15T10:49:25;28.60;;;16.40;;
57327;SDS011;43162;51.040;18.244;2022-11-15T10:51:57;19.70;;;14.50;;
57327;SDS011;43162;51.040;18.244;2022-11-15T10:56:50;22.70;;;15.60;;
57327;SDS011;43162;51.040;18.244;2022-11-15T10:59:20;28.60;;;17.10;;
57327;SDS011;43162;51.040;18.244;2022-11-15T11:01:49;28.20;;;16.30;;
57327;SDS011;43162;51.040;18.244;2022-11-15T11:04:14;24.40;;;15.30;;
57327;SDS011;43162;51.040;18.244;2022-11-15T11:06:53;24.70;;;16.00;;
57327;SDS011;43162;51.040;18.244;2022-11-15T11:09:40;24.90;;;15.30;;
57327;SDS011;43162;51.040;18.244;2022-11-15T11:12:11;22.50;;;14.50;;
57327;SDS011;43162;51.040;18.244;2022-11-15T11:14:37;23.80;;;16.00;;
57327;SDS011;43162;51.040;18.244;2022-11-15T11:32:28;18.90;;;11.90;;
57327;SDS011;43162;51.040;18.244;2022-11-15T11:45:19;23.00;;;13.20;;
57327;SDS011;43162;51.040;18.244;2022-11-15T11:50:37;21.00;;;13.70;;
57327;SDS011;43162;51.040;18.244;2022-11-15T11:53:12;21.40;;;13.90;;
57327;SDS011;43162;51.040;18.244;2022-11-15T11:55:47;20.80;;;14.60;;
57327;SDS011;43162;51.040;18.244;2022-11-15T11:58:19;21.70;;;13.60;;
57327;SDS011;43162;51.040;18.244;2022-11-15T12:03:37;23.30;;;14.60;;
57327;SDS011;43162;51.040;18.244;2022-11-15T12:06:09;22.80;;;14.70;;
57327;SDS011;43162;51.040;18.244;2022-11-15T12:08:41;23.50;;;15.30;;
57327;SDS011;43162;51.040;18.244;2022-11-15T12:11:11;23.90;;;14.40;;
57327;SDS011;43162;51.040;18.244;2022-11-15T12:13:37;18.10;;;13.90;;
57327;SDS011;43162;51.040;18.244;2022-11-15T12:16:22;22.20;;;13.40;;
57327;SDS011;43162;51.040;18.244;2022-11-15T12:18:52;25.70;;;13.70;;
57327;SDS011;43162;51.040;18.244;2022-11-15T12:24:03;25.60;;;13.90;;
57327;SDS011;43162;51.040;18.244;2022-11-15T12:26:37;21.70;;;14.60;;
57327;SDS011;43162;51.040;18.244;2022-11-15T12:29:08;20.30;;;13.60;;
57327;SDS011;43162;51.040;18.244;2022-11-15T12:31:42;28.00;;;14.50;;
57327;SDS011;43162;51.040;18.244;2022-11-15T12:34:14;20.00;;;13.40;;
57327;SDS011;43162;51.040;18.244;2022-11-15T12:36:42;24.30;;;15.50;;
57327;SDS011;43162;51.040;18.244;2022-11-15T12:39:08;23.60;;;16.10;;
57327;SDS011;43162;51.040;18.244;2022-11-15T12:41:38;29.70;;;14.80;;
57327;SDS011;43162;51.040;18.244;2022-11-15T12:44:05;21.30;;;13.60;;
57327;SDS011;43162;51.040;18.244;2022-11-15T13:02:19;21.20;;;13.90;;
57327;SDS011;43162;51.040;18.244;2022-11-15T13:04:46;24.90;;;15.60;;
57327;SDS011;43162;51.040;18.244;2022-11-15T13:09:56;22.80;;;14.50;;
57327;SDS011;43162;51.040;18.244;2022-11-15T13:19:38;25.70;;;16.00;;
57327;SDS011;43162;51.040;18.244;2022-11-15T13:22:09;25.10;;;15.00;;
57327;SDS011;43162;51.040;18.244;2022-11-15T13:24:53;23.40;;;15.20;;
57327;SDS011;43162;51.040;18.244;2022-11-15T13:27:19;27.00;;;15.50;;
57327;SDS011;43162;51.040;18.244;2022-11-15T13:29:45;25.20;;;14.90;;
57327;SDS011;43162;51.040;18.244;2022-11-15T13:32:13;23.10;;;16.20;;
57327;SDS011;43162;51.040;18.244;2022-11-15T13:34:44;28.20;;;17.50;;
57327;SDS011;43162;51.040;18.244;2022-11-15T13:37:32;23.30;;;16.20;;
57327;SDS011;43162;51.040;18.244;2022-11-15T13:42:57;25.30;;;15.60;;
57327;SDS011;43162;51.040;18.244;2022-11-15T13:45:23;29.70;;;16.20;;
57327;SDS011;43162;51.040;18.244;2022-11-15T13:47:54;26.60;;;15.90;;
57327;SDS011;43162;51.040;18.244;2022-11-15T13:50:20;30.70;;;17.40;;
57327;SDS011;43162;51.040;18.244;2022-11-15T13:52:47;33.90;;;18.90;;
57327;SDS011;43162;51.040;18.244;2022-11-15T13:57:41;34.90;;;18.00;;
57327;SDS011;43162;51.040;18.244;2022-11-15T14:06:07;23.70;;;14.70;;
57327;SDS011;43162;51.040;18.244;2022-11-15T14:08:36;20.80;;;12.30;;
57327;SDS011;43162;51.040;18.244;2022-11-15T14:11:15;20.30;;;13.10;;
57327;SDS011;43162;51.040;18.244;2022-11-15T14:14:02;24.30;;;14.10;;
57327;SDS011;43162;51.040;18.244;2022-11-15T14:16:33;25.40;;;15.20;;
57327;SDS011;43162;51.040;18.244;2022-11-15T14:19:00;23.70;;;14.70;;
57327;SDS011;43162;51.040;18.244;2022-11-15T14:21:27;23.10;;;14.80;;
57327;SDS011;43162;51.040;18.244;2022-11-15T14:24:13;26.70;;;14.60;;
57327;SDS011;43162;51.040;18.244;2022-11-15T14:26:39;28.40;;;17.20;;
57327;SDS011;43162;51.040;18.244;2022-11-15T14:29:21;31.80;;;19.70;;
57327;SDS011;43162;51.040;18.244;2022-11-15T14:31:47;27.00;;;18.70;;
57327;SDS011;43162;51.040;18.244;2022-11-15T14:34:13;34.40;;;18.80;;
57327;SDS011;43162;51.040;18.244;2022-11-15T14:36:38;26.60;;;16.80;;
57327;SDS011;43162;51.040;18.244;2022-11-15T14:39:04;27.50;;;17.00;;
57327;SDS011;43162;51.040;18.244;2022-11-15T14:41:33;32.60;;;17.80;;
57327;SDS011;43162;51.040;18.244;2022-11-15T14:43:59;31.40;;;19.30;;
57327;SDS011;43162;51.040;18.244;2022-11-15T14:46:24;27.80;;;17.50;;
57327;SDS011;43162;51.040;18.244;2022-11-15T14:48:50;28.80;;;17.10;;
57327;SDS011;43162;51.040;18.244;2022-11-15T14:51:16;25.70;;;16.50;;
57327;SDS011;43162;51.040;18.244;2022-11-15T14:53:42;30.50;;;16.40;;
57327;SDS011;43162;51.040;18.244;2022-11-15T14:56:08;29.80;;;17.30;;
57327;SDS011;43162;51.040;18.244;2022-11-15T14:58:34;38.60;;;17.40;;
57327;SDS011;43162;51.040;18.244;2022-11-15T15:00:59;41.70;;;19.80;;
57327;SDS011;43162;51.040;18.244;2022-11-15T15:03:24;28.20;;;16.90;;
57327;SDS011;43162;51.040;18.244;2022-11-15T15:05:50;33.90;;;19.60;;
57327;SDS011;43162;51.040;18.244;2022-11-15T15:08:15;34.90;;;18.90;;
57327;SDS011;43162;51.040;18.244;2022-11-15T15:10:42;31.50;;;19.50;;
57327;SDS011;43162;51.040;18.244;2022-11-15T15:15:43;34.20;;;20.40;;
57327;SDS011;43162;51.040;18.244;2022-11-15T15:18:09;32.90;;;19.80;;
57327;SDS011;43162;51.040;18.244;2022-11-15T15:20:37;26.80;;;16.80;;
57327;SDS011;43162;51.040;18.244;2022-11-15T15:23:03;27.80;;;16.10;;
57327;SDS011;43162;51.040;18.244;2022-11-15T15:25:30;29.50;;;16.80;;
57327;SDS011;43162;51.040;18.244;2022-11-15T15:27:57;29.50;;;18.80;;
57327;SDS011;43162;51.040;18.244;2022-11-15T15:30:23;31.20;;;17.10;;
57327;SDS011;43162;51.040;18.244;2022-11-15T15:32:49;22.50;;;14.10;;
57327;SDS011;43162;51.040;18.244;2022-11-15T15:35:14;30.40;;;16.10;;
57327;SDS011;43162;51.040;18.244;2022-11-15T15:37:41;26.40;;;16.50;;
57327;SDS011;43162;51.040;18.244;2022-11-15T15:40:12;23.30;;;15.30;;
57327;SDS011;43162;51.040;18.244;2022-11-15T15:42:38;21.50;;;14.70;;
57327;SDS011;43162;51.040;18.244;2022-11-15T15:45:04;25.60;;;15.00;;
57327;SDS011;43162;51.040;18.244;2022-11-15T15:47:30;26.60;;;14.90;;
57327;SDS011;43162;51.040;18.244;2022-11-15T15:49:55;23.60;;;14.10;;
57327;SDS011;43162;51.040;18.244;2022-11-15T15:52:21;25.20;;;14.50;;
57327;SDS011;43162;51.040;18.244;2022-11-15T15:54:46;20.70;;;12.70;;
57327;SDS011;43162;51.040;18.244;2022-11-15T15:57:12;23.70;;;13.90;;
57327;SDS011;43162;51.040;18.244;2022-11-15T15:59:39;20.70;;;13.10;;
57327;SDS011;43162;51.040;18.244;2022-11-15T16:02:05;23.40;;;16.30;;
57327;SDS011;43162;51.040;18.244;2022-11-15T16:04:32;23.50;;;15.00;;
57327;SDS011;43162;51.040;18.244;2022-11-15T16:07:04;26.90;;;14.60;;
57327;SDS011;43162;51.040;18.244;2022-11-15T16:09:46;23.00;;;14.00;;
57327;SDS011;43162;51.040;18.244;2022-11-15T16:12:29;24.20;;;14.90;;
57327;SDS011;43162;51.040;18.244;2022-11-15T16:14:55;23.50;;;13.40;;